Pagrindinis puslapis
METAR-TAF:

METAR-TAF

Oro uostai :

Vamdrup

Koldingas, Danija

platuma: 55-26N, ilguma: 009-20E, Aukštis: 44 m

Dabartinis oras

Ataskaita buvo paskelbta 31 minutes, ne 02:50 UTC
Vėjas 9 kt iš Pietų/Pietryčių
Temperatūra 3°C
Drėgmė 93%
Slėgis 993 hPa

METAR: EKVD 010250Z AUTO 15009KT //// ///////// 03/02 Q0993

Laikas: 04:21 (03:21 UTC)

Prognozė

Ataskaita buvo paskelbta 15 valandos ir 27 minutes, ne 11:54 UTC
Prognozė galioja nuo 30 metu 12 UTC su 30 metu 17 UTC
Vėjas 25 kt iš Šiaurės Vakarų su gūsio iki 35 kt
Matomumas 10 km arba daugiau
Su prošvaistėmis ne aukštis 2000 ft
Tapsmas
nuo 30 metu 12 UTC su 30 metu 14 UTC
Vėjas 15 kt iš Vakarų/Šiaurės Vakarų
Laikinai
nuo 30 metu 12 UTC su 30 metu 17 UTC
Matomumas: 4000 m
Išsisklaidę debesys ne aukštis 2000 ft, aukštai iškilę kamuoliniai debesys.
lietus

TAF: EKVD 301154Z 3012/3017 31025G35KT 9999 BKN020 BECMG 3012/3014 30015KT TEMPO 3012/3017 4000 -SHRA SCT020TCU

Orai ataskaitas ir orų prognozės (METAR, TAF).

turimą stotys yra geltonos ir raudonos taškus žemėlapyje.

Perkelti pele per norėdami pamatyti stoties vardą.

Tada spustelėkite, norėdami matyti oro stebėjimo ir prognozės.

Norėdami pakeisti žemėlapį: spustelėkite ant žalios mygtukų su juodo kryžiaus žemyn,; žalią mygtuką su brūkšneliu, jei norite nutolinti; arba žalių rodyklių gretimoms žemėlapius.


METAR-TAF: